createdAt,value
2016-03-06T00:00:25.701Z,0
2016-03-06T00:01:25.673Z,0
2016-03-06T00:02:25.675Z,0
2016-03-06T00:03:25.662Z,0
2016-03-06T00:04:25.681Z,0
2016-03-06T00:05:25.683Z,0
2016-03-06T00:06:25.701Z,0
2016-03-06T00:07:25.678Z,0
2016-03-06T00:08:25.696Z,0
2016-03-06T00:09:25.683Z,0
2016-03-06T00:10:25.668Z,0
2016-03-06T00:11:25.674Z,0
2016-03-06T00:12:25.678Z,0
2016-03-06T00:13:25.680Z,0
2016-03-06T00:14:25.683Z,0
2016-03-06T00:15:25.670Z,0
2016-03-06T00:16:25.673Z,0
2016-03-06T00:17:25.659Z,0
2016-03-06T00:18:25.662Z,0
2016-03-06T00:19:25.681Z,0
2016-03-06T00:20:25.652Z,0
2016-03-06T00:21:25.670Z,0
2016-03-06T00:22:25.657Z,0
2016-03-06T00:23:25.659Z,0
2016-03-06T00:24:25.662Z,0
2016-03-06T00:25:25.681Z,0
2016-03-06T00:26:25.668Z,0
2016-03-06T00:27:25.670Z,0
2016-03-06T00:28:25.659Z,0
2016-03-06T00:29:25.661Z,0
2016-03-06T00:30:25.695Z,0
2016-03-06T00:31:25.650Z,0
2016-03-06T00:32:25.684Z,0
2016-03-06T00:33:25.655Z,0
2016-03-06T00:34:25.659Z,0
2016-03-06T00:35:25.661Z,0
2016-03-06T00:36:25.664Z,0
2016-03-06T00:37:25.525Z,0
2016-03-06T00:38:25.653Z,0
2016-03-06T00:39:25.656Z,0
2016-03-06T00:40:25.658Z,0
2016-03-06T00:41:25.661Z,0
2016-03-06T00:42:25.649Z,0
2016-03-06T00:43:25.666Z,0
2016-03-06T00:44:25.655Z,0
2016-03-06T00:45:25.485Z,0
2016-03-06T00:46:25.675Z,0
2016-03-06T00:47:25.646Z,0
2016-03-06T00:48:25.665Z,0
2016-03-06T00:49:25.651Z,0
2016-03-06T00:50:25.640Z,0
2016-03-06T00:51:25.517Z,0
2016-03-06T00:52:25.488Z,0
2016-03-06T00:53:25.647Z,0
2016-03-06T00:54:25.665Z,0
2016-03-06T00:55:25.636Z,0
2016-03-06T00:56:25.656Z,0
2016-03-06T00:57:25.673Z,0
2016-03-06T00:58:25.645Z,0
2016-03-06T00:59:25.647Z,0
2016-03-06T01:00:25.651Z,0
2016-03-06T01:01:25.653Z,0
2016-03-06T01:02:25.656Z,0
2016-03-06T01:03:25.642Z,0
2016-03-06T01:04:25.661Z,0
2016-03-06T01:05:25.632Z,0
2016-03-06T01:06:25.636Z,0
2016-03-06T01:07:25.653Z,0
2016-03-06T01:08:25.641Z,0
2016-03-06T01:09:25.643Z,0
2016-03-06T01:10:25.635Z,0
2016-03-06T01:11:25.638Z,0
2016-03-06T01:12:25.641Z,0
2016-03-06T01:13:25.627Z,0
2016-03-06T01:14:25.646Z,0
2016-03-06T01:15:25.632Z,0
2016-03-06T01:16:25.635Z,0
2016-03-06T01:17:25.654Z,0
2016-03-06T01:18:25.641Z,0
2016-03-06T01:19:25.628Z,0
2016-03-06T01:20:25.646Z,0
2016-03-06T01:21:25.634Z,0
2016-03-06T01:22:25.651Z,0
2016-03-06T01:23:25.623Z,0
2016-03-06T01:24:25.626Z,0
2016-03-06T01:25:25.628Z,0
2016-03-06T01:26:25.631Z,0
2016-03-06T01:27:25.618Z,0
2016-03-06T01:28:25.637Z,0
2016-03-06T01:29:25.623Z,0
2016-03-06T01:30:25.626Z,0
2016-03-06T01:31:25.660Z,0
2016-03-06T01:32:25.616Z,0
2016-03-06T01:33:25.634Z,0
2016-03-06T01:34:25.622Z,0
2016-03-06T01:35:25.624Z,0
2016-03-06T01:36:25.642Z,0
2016-03-06T01:37:25.629Z,0
2016-03-06T01:38:25.632Z,0
2016-03-06T01:39:25.619Z,0
2016-03-06T01:40:25.653Z,0
2016-03-06T01:41:25.624Z,0
2016-03-06T01:42:25.627Z,0
2016-03-06T01:43:25.630Z,0
2016-03-06T01:44:25.618Z,0
2016-03-06T01:45:25.635Z,0
2016-03-06T01:46:25.607Z,0
2016-03-06T01:47:25.625Z,0
2016-03-06T01:48:25.643Z,0
2016-03-06T01:49:25.615Z,0
2016-03-06T01:50:25.462Z,0
2016-03-06T01:51:25.620Z,0
2016-03-06T01:52:25.623Z,0
2016-03-06T01:53:25.625Z,0
2016-03-06T01:54:25.628Z,0
2016-03-06T01:55:25.647Z,0
2016-03-06T01:56:25.618Z,0
2016-03-06T01:57:25.605Z,0
2016-03-06T01:58:25.623Z,0
2016-03-06T01:59:25.595Z,0
2016-03-06T02:00:25.614Z,0
2016-03-06T02:01:25.616Z,0
2016-03-06T02:02:25.619Z,0
2016-03-06T02:03:25.605Z,0
2016-03-06T02:04:25.608Z,0
2016-03-06T02:05:25.595Z,0
2016-03-06T02:06:26.145Z,0
2016-03-06T02:07:25.600Z,0
2016-03-06T02:08:25.619Z,0
2016-03-06T02:09:25.621Z,0
2016-03-06T02:10:25.624Z,0
2016-03-06T02:11:25.611Z,0
2016-03-06T02:12:25.599Z,0
2016-03-06T02:13:25.601Z,0
2016-03-06T02:14:25.604Z,0
2016-03-06T02:15:25.607Z,0
2016-03-06T02:16:25.594Z,0
2016-03-06T02:17:25.627Z,0
2016-03-06T02:18:25.615Z,0
2016-03-06T02:19:25.617Z,0
2016-03-06T02:20:25.620Z,0
2016-03-06T02:21:25.607Z,0
2016-03-06T02:22:25.640Z,0
2016-03-06T02:23:25.690Z,0
2016-03-06T02:24:25.584Z,0
2016-03-06T02:25:25.633Z,0
2016-03-06T02:26:25.606Z,0
2016-03-06T02:27:25.592Z,0
2016-03-06T02:28:25.611Z,0
2016-03-06T02:29:25.597Z,0
2016-03-06T02:30:25.600Z,0
2016-03-06T02:31:25.634Z,0
2016-03-06T02:32:25.590Z,0
2016-03-06T02:33:25.608Z,0
2016-03-06T02:34:25.611Z,0
2016-03-06T02:35:25.613Z,0
2016-03-06T02:36:25.586Z,0
2016-03-06T02:37:25.603Z,0
2016-03-06T02:38:25.606Z,0
2016-03-06T02:39:25.593Z,0
2016-03-06T02:40:25.596Z,0
2016-03-06T02:41:25.598Z,0
2016-03-06T02:42:25.585Z,0
2016-03-06T02:43:25.604Z,0
2016-03-06T02:44:25.607Z,0
2016-03-06T02:45:25.594Z,0
2016-03-06T02:46:25.612Z,0
2016-03-06T02:47:25.599Z,0
2016-03-06T02:48:25.602Z,0
2016-03-06T02:49:25.604Z,0
2016-03-06T02:50:25.591Z,0
2016-03-06T02:51:25.578Z,0
2016-03-06T02:52:25.581Z,0
2016-03-06T02:53:25.615Z,0
2016-03-06T02:54:25.587Z,0
2016-03-06T02:55:25.604Z,0
2016-03-06T02:56:25.576Z,0
2016-03-06T02:57:25.594Z,0
2016-03-06T02:58:25.628Z,0
2016-03-06T02:59:25.584Z,0
2016-03-06T03:00:25.587Z,0
2016-03-06T03:01:25.574Z,0
2016-03-06T03:02:25.578Z,0
2016-03-06T03:03:25.595Z,0
2016-03-06T03:04:25.567Z,0
2016-03-06T03:05:25.569Z,0
2016-03-06T03:06:25.588Z,0
2016-03-06T03:07:25.574Z,0
2016-03-06T03:08:25.578Z,0
2016-03-06T03:09:25.580Z,0
2016-03-06T03:10:25.583Z,0
2016-03-06T03:11:25.569Z,0
2016-03-06T03:12:25.572Z,0
2016-03-06T03:13:25.590Z,0
2016-03-06T03:14:25.563Z,0
2016-03-06T03:15:25.565Z,0
2016-03-06T03:16:25.583Z,0
2016-03-06T03:17:25.570Z,0
2016-03-06T03:18:25.417Z,0
2016-03-06T03:19:25.576Z,0
2016-03-06T03:20:25.547Z,0
2016-03-06T03:21:25.581Z,0
2016-03-06T03:22:25.568Z,0
2016-03-06T03:23:25.570Z,0
2016-03-06T03:24:25.558Z,0
2016-03-06T03:25:25.560Z,0
2016-03-06T03:26:25.563Z,0
2016-03-06T03:27:25.565Z,0
2016-03-06T03:28:25.568Z,0
2016-03-06T03:29:25.570Z,0
2016-03-06T03:30:25.559Z,0
2016-03-06T03:31:25.561Z,0
2016-03-06T03:32:25.548Z,0
2016-03-06T03:33:25.613Z,0
2016-03-06T03:34:25.570Z,0
2016-03-06T03:35:25.556Z,0
2016-03-06T03:36:25.544Z,0
2016-03-06T03:37:25.546Z,0
2016-03-06T03:38:25.578Z,0
2016-03-06T03:39:25.567Z,0
2016-03-06T03:40:25.538Z,0
2016-03-06T03:41:25.510Z,0
2016-03-06T03:42:25.499Z,0
2016-03-06T03:43:25.487Z,0
2016-03-06T03:44:25.469Z,0
2016-03-06T03:45:25.482Z,0
2016-03-06T03:46:25.463Z,0
2016-03-06T03:47:25.476Z,0
2016-03-06T03:48:25.460Z,0
2016-03-06T03:49:25.442Z,0
2016-03-06T03:50:25.443Z,0
2016-03-06T03:51:25.459Z,0
2016-03-06T03:52:25.429Z,0
2016-03-06T03:53:25.444Z,0
2016-03-06T03:54:25.430Z,0
2016-03-06T03:55:25.433Z,0
2016-03-06T03:56:25.419Z,0
2016-03-06T03:57:25.438Z,0
2016-03-06T03:58:25.456Z,0
2016-03-06T03:59:25.427Z,0
2016-03-06T04:00:25.445Z,0
2016-03-06T04:01:25.447Z,0
2016-03-06T04:02:25.434Z,0
2016-03-06T04:03:25.420Z,0
2016-03-06T04:04:25.422Z,0
2016-03-06T04:05:25.440Z,0
2016-03-06T04:06:25.413Z,0
2016-03-06T04:07:25.430Z,0
2016-03-06T04:08:25.417Z,0
2016-03-06T04:09:25.421Z,0
2016-03-06T04:10:25.407Z,0
2016-03-06T04:11:25.426Z,0
2016-03-06T04:12:25.429Z,0
2016-03-06T04:13:25.415Z,0
2016-03-06T04:14:25.434Z,0
2016-03-06T04:15:25.405Z,0
2016-03-06T04:16:25.408Z,0
2016-03-06T04:17:25.411Z,0
2016-03-06T04:18:25.414Z,0
2016-03-06T04:19:25.416Z,0
2016-03-06T04:20:25.403Z,0
2016-03-06T04:21:25.406Z,0
2016-03-06T04:22:25.439Z,0
2016-03-06T04:23:25.411Z,0
2016-03-06T04:24:25.430Z,0
2016-03-06T04:25:25.432Z,0
2016-03-06T04:26:25.403Z,0
2016-03-06T04:27:25.422Z,0
2016-03-06T04:28:25.425Z,0
2016-03-06T04:29:25.396Z,0
2016-03-06T04:30:25.414Z,0
2016-03-06T04:31:25.401Z,0
2016-03-06T04:32:25.420Z,0
2016-03-06T04:33:25.407Z,0
2016-03-06T04:34:25.393Z,0
2016-03-06T04:35:25.397Z,0
2016-03-06T04:36:25.399Z,0
2016-03-06T04:37:25.402Z,0
2016-03-06T04:38:25.420Z,0
2016-03-06T04:39:25.407Z,0
2016-03-06T04:40:25.394Z,0
2016-03-06T04:41:25.396Z,0
2016-03-06T04:42:25.399Z,0
2016-03-06T04:43:25.418Z,0
2016-03-06T04:44:25.390Z,0
2016-03-06T04:45:25.392Z,0
2016-03-06T04:46:25.395Z,0
2016-03-06T04:47:25.398Z,0
2016-03-06T04:48:25.384Z,0
2016-03-06T04:49:25.387Z,0
2016-03-06T04:50:25.390Z,0
2016-03-06T04:51:25.423Z,0
2016-03-06T04:52:25.395Z,0
2016-03-06T04:53:25.398Z,0
2016-03-06T04:54:25.417Z,0
2016-03-06T04:55:25.389Z,0
2016-03-06T04:56:25.395Z,0
2016-03-06T04:57:25.382Z,0
2016-03-06T04:58:25.385Z,0
2016-03-06T04:59:25.372Z,0
2016-03-06T05:00:25.406Z,0
2016-03-06T05:01:25.393Z,0
2016-03-06T05:02:25.380Z,0
2016-03-06T05:03:25.382Z,0
2016-03-06T05:04:25.386Z,0
2016-03-06T05:05:25.388Z,0
2016-03-06T05:06:25.376Z,0
2016-03-06T05:07:25.378Z,0
2016-03-06T05:08:25.396Z,0
2016-03-06T05:09:25.384Z,0
2016-03-06T05:10:25.370Z,0
2016-03-06T05:11:25.373Z,0
2016-03-06T05:12:25.376Z,0
2016-03-06T05:13:25.378Z,0
2016-03-06T05:14:25.365Z,0
2016-03-06T05:15:25.368Z,0
2016-03-06T05:16:25.387Z,0
2016-03-06T05:17:25.373Z,0
2016-03-06T05:18:25.376Z,0
2016-03-06T05:19:25.364Z,0
2016-03-06T05:20:25.381Z,0
2016-03-06T05:21:25.369Z,0
2016-03-06T05:22:25.356Z,0
2016-03-06T05:23:25.389Z,0
2016-03-06T05:24:25.377Z,0
2016-03-06T05:25:25.380Z,0
2016-03-06T05:26:25.367Z,0
2016-03-06T05:27:25.370Z,0
2016-03-06T05:28:25.372Z,0
2016-03-06T05:29:25.358Z,0
2016-03-06T05:30:25.362Z,0
2016-03-06T05:31:25.364Z,0
2016-03-06T05:32:25.366Z,0
2016-03-06T05:33:25.369Z,4
2016-03-06T05:34:25.372Z,4
2016-03-06T05:35:25.360Z,4
2016-03-06T05:36:25.362Z,8
2016-03-06T05:37:25.365Z,4
2016-03-06T05:38:25.352Z,8
2016-03-06T05:39:25.355Z,8
2016-03-06T05:40:25.342Z,12
2016-03-06T05:41:25.359Z,8
2016-03-06T05:42:25.379Z,12
2016-03-06T05:43:25.350Z,12
2016-03-06T05:44:25.353Z,16
2016-03-06T05:45:25.356Z,16
2016-03-06T05:46:25.342Z,16
2016-03-06T05:47:25.345Z,20
2016-03-06T05:48:25.332Z,28
2016-03-06T05:49:25.350Z,32
2016-03-06T05:50:25.384Z,36
2016-03-06T05:51:25.356Z,40
2016-03-06T05:52:25.342Z,44
2016-03-06T05:53:25.345Z,48
2016-03-06T05:54:25.317Z,48
2016-03-06T05:55:25.366Z,48
2016-03-06T05:56:25.338Z,52
2016-03-06T05:57:25.341Z,52
2016-03-06T05:58:25.374Z,60
2016-03-06T05:59:25.330Z,64
2016-03-06T06:00:25.364Z,76
2016-03-06T06:01:25.335Z,84
2016-03-06T06:02:25.339Z,84
2016-03-06T06:03:25.357Z,84
2016-03-06T06:04:25.327Z,88
2016-03-06T06:05:25.331Z,88
2016-03-06T06:06:25.333Z,84
2016-03-06T06:07:25.335Z,80
2016-03-06T06:08:25.355Z,80
2016-03-06T06:09:25.341Z,88
2016-03-06T06:10:25.329Z,88
2016-03-06T06:11:25.332Z,92
2016-03-06T06:12:25.334Z,80
2016-03-06T06:13:25.337Z,80
2016-03-06T06:14:25.355Z,84
2016-03-06T06:15:25.326Z,88
2016-03-06T06:16:25.328Z,88
2016-03-06T06:17:25.348Z,88
2016-03-06T06:18:25.319Z,80
2016-03-06T06:19:25.337Z,76
2016-03-06T06:20:25.324Z,72
2016-03-06T06:21:25.327Z,64
2016-03-06T06:22:25.345Z,72
2016-03-06T06:23:25.333Z,72
2016-03-06T06:24:25.335Z,68
2016-03-06T06:25:25.322Z,76
2016-03-06T06:26:25.341Z,72
2016-03-06T06:27:25.327Z,68
2016-03-06T06:28:25.315Z,76
2016-03-06T06:29:25.317Z,84
2016-03-06T06:30:25.319Z,80
2016-03-06T06:31:25.322Z,76
2016-03-06T06:32:25.325Z,80
2016-03-06T06:33:25.313Z,92
2016-03-06T06:34:25.315Z,96
2016-03-06T06:35:25.161Z,104
2016-03-06T06:36:25.320Z,112
2016-03-06T06:37:25.308Z,120
2016-03-06T06:38:25.310Z,124
2016-03-06T06:39:25.343Z,128
2016-03-06T06:40:25.332Z,124
2016-03-06T06:41:25.302Z,124
2016-03-06T06:42:25.149Z,128
2016-03-06T06:43:25.307Z,116
2016-03-06T06:44:25.310Z,120
2016-03-06T06:45:25.313Z,124
2016-03-06T06:46:25.332Z,128
2016-03-06T06:47:25.303Z,144
2016-03-06T06:48:25.306Z,156
2016-03-06T06:49:25.293Z,164
2016-03-06T06:50:25.296Z,168
2016-03-06T06:51:25.314Z,168
2016-03-06T06:52:25.285Z,156
2016-03-06T06:53:25.147Z,164
2016-03-06T06:54:25.291Z,180
2016-03-06T06:55:25.136Z,184
2016-03-06T06:56:25.312Z,176
2016-03-06T06:57:25.299Z,176
2016-03-06T06:58:25.302Z,172
2016-03-06T06:59:25.304Z,220
2016-03-06T07:00:25.291Z,256
2016-03-06T07:01:25.310Z,284
2016-03-06T07:02:25.313Z,312
2016-03-06T07:03:25.299Z,328
2016-03-06T07:04:25.302Z,340
2016-03-06T07:05:25.321Z,356
2016-03-06T07:06:25.297Z,408
2016-03-06T07:07:25.299Z,452
2016-03-06T07:08:25.271Z,488
2016-03-06T07:09:25.289Z,512
2016-03-06T07:10:25.292Z,540
2016-03-06T07:11:25.279Z,576
2016-03-06T07:12:25.282Z,628
2016-03-06T07:13:25.300Z,692
2016-03-06T07:14:25.287Z,772
2016-03-06T07:15:25.134Z,836
2016-03-06T07:16:25.308Z,896
2016-03-06T07:17:25.279Z,940
2016-03-06T07:18:25.298Z,976
2016-03-06T07:19:25.300Z,992
2016-03-06T07:20:25.287Z,1048
2016-03-06T07:21:25.289Z,1136
2016-03-06T07:22:25.277Z,1220
2016-03-06T07:23:25.280Z,1228
2016-03-06T07:24:25.283Z,1192
2016-03-06T07:25:25.269Z,1188
2016-03-06T07:26:25.288Z,1144
2016-03-06T07:27:25.275Z,1092
2016-03-06T07:28:25.278Z,1012
2016-03-06T07:29:25.311Z,916
2016-03-06T07:30:25.283Z,960
2016-03-06T07:31:25.286Z,1068
2016-03-06T07:32:25.289Z,1260
2016-03-06T07:33:25.276Z,1288
2016-03-06T07:34:25.279Z,1260
2016-03-06T07:35:25.265Z,1248
2016-03-06T07:36:25.268Z,1344
2016-03-06T07:37:25.255Z,1544
2016-03-06T07:38:25.273Z,1780
2016-03-06T07:39:25.276Z,1948
2016-03-06T07:40:25.263Z,2080
2016-03-06T07:41:25.265Z,2196
2016-03-06T07:42:25.284Z,2356
2016-03-06T07:43:25.099Z,2480
2016-03-06T07:44:25.274Z,2516
2016-03-06T07:45:25.261Z,2644
2016-03-06T07:46:25.264Z,2724
2016-03-06T07:47:25.298Z,2816
2016-03-06T07:48:25.253Z,2932
2016-03-06T07:49:25.256Z,3016
2016-03-06T07:50:25.290Z,3172
2016-03-06T07:51:25.261Z,3064
2016-03-06T07:52:25.280Z,3160
2016-03-06T07:53:25.250Z,2932
2016-03-06T07:54:25.253Z,3020
2016-03-06T07:55:25.256Z,3380
2016-03-06T07:56:25.258Z,3352
2016-03-06T07:57:25.261Z,3044
2016-03-06T07:58:25.264Z,2328
2016-03-06T07:59:25.252Z,1872
2016-03-06T08:00:25.255Z,1936
2016-03-06T08:01:25.272Z,1896
2016-03-06T08:02:25.244Z,1824
2016-03-06T08:03:25.263Z,1716
2016-03-06T08:04:25.265Z,1628
2016-03-06T08:05:25.252Z,1720
2016-03-06T08:06:25.293Z,1588
2016-03-06T08:07:25.250Z,1524
2016-03-06T08:08:25.268Z,1416
2016-03-06T08:09:25.240Z,1552
2016-03-06T08:10:25.273Z,1584
2016-03-06T08:11:25.276Z,1580
2016-03-06T08:12:25.247Z,1612
2016-03-06T08:13:25.250Z,1456
2016-03-06T08:14:25.284Z,1492
2016-03-06T08:15:25.256Z,1352
2016-03-06T08:16:25.258Z,1480
2016-03-06T08:17:25.261Z,1888
2016-03-06T08:18:25.247Z,2276
2016-03-06T08:19:25.251Z,2696
2016-03-06T08:20:25.253Z,3008
2016-03-06T08:21:25.256Z,2996
2016-03-06T08:22:25.258Z,3044
2016-03-06T08:23:25.246Z,2752
2016-03-06T08:24:25.248Z,2608
2016-03-06T08:25:25.266Z,2368
2016-03-06T08:26:25.270Z,2624
2016-03-06T08:27:25.256Z,2592
2016-03-06T08:28:25.259Z,2372
2016-03-06T08:29:25.246Z,2440
2016-03-06T08:30:25.296Z,2720
2016-03-06T08:31:25.235Z,2916
2016-03-06T08:32:25.254Z,2932
2016-03-06T08:33:25.272Z,2924
2016-03-06T08:34:25.259Z,2640
2016-03-06T08:35:25.277Z,2272
2016-03-06T08:36:25.265Z,3208
2016-03-06T08:37:25.237Z,3684
2016-03-06T08:38:25.254Z,2800
2016-03-06T08:39:25.274Z,3364
2016-03-06T08:40:25.245Z,4132
2016-03-06T08:41:25.278Z,3928
2016-03-06T08:42:25.266Z,3524
2016-03-06T08:43:25.268Z,3636
2016-03-06T08:44:25.240Z,3516
2016-03-06T08:45:25.259Z,3212
2016-03-06T08:46:25.120Z,3688
2016-03-06T08:47:25.248Z,4196
2016-03-06T08:48:25.250Z,4252
2016-03-06T08:49:25.253Z,4288
2016-03-06T08:50:25.240Z,4400
2016-03-06T08:51:25.274Z,4688
2016-03-06T08:52:25.246Z,4844
2016-03-06T08:53:25.264Z,4532
2016-03-06T08:54:25.251Z,4572
2016-03-06T08:55:25.253Z,3600
2016-03-06T08:56:25.256Z,2752
2016-03-06T08:57:25.275Z,2740
2016-03-06T08:58:25.246Z,3248
2016-03-06T08:59:25.264Z,3384
2016-03-06T09:00:25.252Z,3456
2016-03-06T09:01:25.255Z,4136
2016-03-06T09:02:25.257Z,4656
2016-03-06T09:03:25.244Z,4888
2016-03-06T09:04:25.263Z,5772
2016-03-06T09:05:25.296Z,6196
2016-03-06T09:06:25.267Z,5908
2016-03-06T09:07:25.271Z,5808
2016-03-06T09:08:25.257Z,5284
2016-03-06T09:09:25.260Z,4212
2016-03-06T09:10:25.263Z,4544
2016-03-06T09:11:25.265Z,5408
2016-03-06T09:12:25.252Z,5400
2016-03-06T09:13:25.271Z,5464
2016-03-06T09:14:25.289Z,6232
2016-03-06T09:15:25.292Z,7120
2016-03-06T09:16:25.279Z,7848
2016-03-06T09:17:25.250Z,8988
2016-03-06T09:18:25.269Z,9196
2016-03-06T09:19:25.287Z,9440
2016-03-06T09:20:25.273Z,8608
2016-03-06T09:21:25.262Z,7660
2016-03-06T09:22:25.264Z,6332
2016-03-06T09:23:25.281Z,5612
2016-03-06T09:24:25.284Z,5232
2016-03-06T09:25:25.319Z,5856
2016-03-06T09:26:25.275Z,7140
2016-03-06T09:27:25.277Z,9068
2016-03-06T09:28:25.295Z,9112
2016-03-06T09:29:25.297Z,8100
2016-03-06T09:30:25.316Z,8212
2016-03-06T09:31:25.288Z,7636
2016-03-06T09:32:25.275Z,7204
2016-03-06T09:33:25.278Z,6412
2016-03-06T09:34:25.296Z,6472
2016-03-06T09:35:25.283Z,6860
2016-03-06T09:36:25.286Z,7488
2016-03-06T09:37:25.288Z,7704
2016-03-06T09:38:25.291Z,8672
2016-03-06T09:39:25.263Z,9532
2016-03-06T09:40:25.343Z,9908
2016-03-06T09:41:25.284Z,10068
2016-03-06T09:42:25.287Z,9840
2016-03-06T09:43:25.305Z,8448
2016-03-06T09:44:25.292Z,8144
2016-03-06T09:45:25.309Z,8344
2016-03-06T09:46:25.313Z,8244
2016-03-06T09:47:25.300Z,7744
2016-03-06T09:48:25.302Z,6700
2016-03-06T09:49:25.352Z,6108
2016-03-06T09:50:25.308Z,6052
2016-03-06T09:51:25.311Z,5584
2016-03-06T09:52:25.329Z,6004
2016-03-06T09:53:25.316Z,7096
2016-03-06T09:54:25.319Z,7756
2016-03-06T09:55:25.368Z,7624
2016-03-06T09:56:25.308Z,7184
2016-03-06T09:57:25.327Z,5952
2016-03-06T09:58:25.330Z,5880
2016-03-06T09:59:25.333Z,6360
2016-03-06T10:00:25.335Z,6856
2016-03-06T10:01:25.321Z,7232
2016-03-06T10:02:25.341Z,7588
2016-03-06T10:03:25.327Z,7204
2016-03-06T10:04:25.329Z,6436
2016-03-06T10:05:25.333Z,5244
2016-03-06T10:06:25.351Z,4920
2016-03-06T10:07:25.338Z,4988
2016-03-06T10:08:25.341Z,4960
2016-03-06T10:09:25.343Z,5228
2016-03-06T10:10:25.393Z,5956
2016-03-06T10:11:25.349Z,5668
2016-03-06T10:12:25.367Z,4984
2016-03-06T10:13:25.354Z,5760
2016-03-06T10:14:25.357Z,7184
2016-03-06T10:15:25.359Z,7268
2016-03-06T10:16:25.347Z,7508
2016-03-06T10:17:25.365Z,7512
2016-03-06T10:18:25.367Z,7504
2016-03-06T10:19:25.386Z,7956
2016-03-06T10:20:25.373Z,7452
2016-03-06T10:21:25.375Z,6724
2016-03-06T10:22:25.378Z,6072
2016-03-06T10:23:25.381Z,5776
2016-03-06T10:24:25.384Z,5952
2016-03-06T10:25:25.386Z,5828
2016-03-06T10:26:25.405Z,5720
2016-03-06T10:27:25.408Z,5732
2016-03-06T10:28:25.394Z,5832
2016-03-06T10:29:25.397Z,6292
2016-03-06T10:30:25.416Z,6464
2016-03-06T10:31:25.386Z,6616
2016-03-06T10:32:25.406Z,6816
2016-03-06T10:33:25.424Z,6764
2016-03-06T10:34:25.410Z,7332
2016-03-06T10:35:25.414Z,7816
2016-03-06T10:36:25.447Z,7400
2016-03-06T10:37:25.418Z,7440
2016-03-06T10:38:25.437Z,7360
2016-03-06T10:39:25.424Z,7560
2016-03-06T10:40:25.458Z,7680
2016-03-06T10:41:25.445Z,7320
2016-03-06T10:42:25.432Z,7068
2016-03-06T10:43:25.435Z,6552
2016-03-06T10:44:25.453Z,6632
2016-03-06T10:45:25.440Z,6432
2016-03-06T10:46:25.459Z,6536
2016-03-06T10:47:25.445Z,6696
2016-03-06T10:48:25.449Z,6764
2016-03-06T10:49:25.482Z,6700
2016-03-06T10:50:25.469Z,6428
2016-03-06T10:51:25.472Z,6456
2016-03-06T10:52:25.458Z,7228
2016-03-06T10:53:25.462Z,7656
2016-03-06T10:54:25.464Z,7896
2016-03-06T10:55:25.467Z,7520
2016-03-06T10:56:25.470Z,7552
2016-03-06T10:57:25.472Z,7700
2016-03-06T10:58:25.475Z,7404
2016-03-06T10:59:25.322Z,6456
2016-03-06T11:00:25.496Z,5368
2016-03-06T11:01:25.514Z,4576
2016-03-06T11:02:25.502Z,4132
2016-03-06T11:03:25.489Z,3556
2016-03-06T11:04:25.491Z,2956
2016-03-06T11:05:25.510Z,2660
2016-03-06T11:06:25.497Z,2668
2016-03-06T11:07:25.515Z,2424
2016-03-06T11:08:25.517Z,2112
2016-03-06T11:09:25.505Z,1972
2016-03-06T11:10:25.507Z,1912
2016-03-06T11:11:25.572Z,1868
2016-03-06T11:12:25.528Z,1816
2016-03-06T11:13:25.531Z,1820
2016-03-06T11:14:25.534Z,1924
2016-03-06T11:15:25.537Z,1820
2016-03-06T11:16:25.523Z,1584
2016-03-06T11:17:25.542Z,1480
2016-03-06T11:18:25.560Z,1628
2016-03-06T11:19:25.532Z,1856
2016-03-06T11:20:25.550Z,1964
2016-03-06T11:21:25.568Z,1936
2016-03-06T11:22:25.540Z,1880
2016-03-06T11:23:25.558Z,1912
2016-03-06T11:24:26.107Z,2044
2016-03-06T11:25:25.563Z,2280
2016-03-06T11:26:25.567Z,2920
2016-03-06T11:27:25.553Z,3908
2016-03-06T11:28:25.571Z,4664
2016-03-06T11:29:25.575Z,5180
2016-03-06T11:30:24.842Z,5056
2016-03-06T11:31:25.579Z,4680
2016-03-06T11:32:25.583Z,4412
2016-03-06T11:33:25.585Z,4432
2016-03-06T11:34:25.588Z,4616
2016-03-06T11:35:25.591Z,4904
2016-03-06T11:36:25.593Z,4948
2016-03-06T11:37:25.580Z,4988
2016-03-06T11:38:25.588Z,5252
2016-03-06T11:39:25.576Z,5376
2016-03-06T11:40:25.625Z,5284
2016-03-06T11:41:25.611Z,5148
2016-03-06T11:42:25.615Z,4788
2016-03-06T11:43:25.602Z,4348
2016-03-06T11:44:25.619Z,3832
2016-03-06T11:45:25.608Z,3228
2016-03-06T11:46:25.610Z,2772
2016-03-06T11:47:25.628Z,2356
2016-03-06T11:48:25.616Z,2144
2016-03-06T11:49:25.633Z,2048
2016-03-06T11:50:25.636Z,2088
2016-03-06T11:51:25.623Z,1932
2016-03-06T11:52:25.626Z,2032
2016-03-06T11:53:25.629Z,2276
2016-03-06T11:54:25.632Z,2164
2016-03-06T11:55:26.103Z,2016
2016-03-06T11:56:25.465Z,1904
2016-03-06T11:57:25.484Z,1808
2016-03-06T11:58:25.626Z,1792
2016-03-06T11:59:25.645Z,1864
2016-03-06T12:00:25.632Z,2288
2016-03-06T12:01:25.634Z,2508
2016-03-06T12:02:25.701Z,2812
2016-03-06T12:03:25.640Z,2752
2016-03-06T12:04:25.643Z,2516
2016-03-06T12:05:25.645Z,2404
2016-03-06T12:06:25.647Z,2596
2016-03-06T12:07:25.651Z,3024
2016-03-06T12:08:25.638Z,3900
2016-03-06T12:09:25.641Z,4388
2016-03-06T12:10:25.675Z,4756
2016-03-06T12:11:25.661Z,5152
2016-03-06T12:12:25.664Z,5704
2016-03-06T12:13:25.667Z,6936
2016-03-06T12:14:25.669Z,7632
2016-03-06T12:15:25.657Z,7504
2016-03-06T12:16:25.660Z,7252
2016-03-06T12:17:25.662Z,6788
2016-03-06T12:18:25.665Z,6340
2016-03-06T12:19:25.745Z,6360
2016-03-06T12:20:25.670Z,6432
2016-03-06T12:21:25.688Z,6888
2016-03-06T12:22:25.676Z,7168
2016-03-06T12:23:25.678Z,6788
2016-03-06T12:24:25.682Z,5896
2016-03-06T12:25:25.684Z,5252
2016-03-06T12:26:25.748Z,4616
2016-03-06T12:27:25.690Z,4076
2016-03-06T12:28:25.692Z,3652
2016-03-06T12:29:25.694Z,3424
2016-03-06T12:30:25.697Z,3056
2016-03-06T12:31:25.701Z,2676
2016-03-06T12:32:25.734Z,2536
2016-03-06T12:33:25.705Z,2800
2016-03-06T12:34:25.708Z,3892
2016-03-06T12:35:25.711Z,5888
2016-03-06T12:36:25.728Z,7740
2016-03-06T12:37:25.700Z,8700
2016-03-06T12:38:25.703Z,8360
2016-03-06T12:39:25.722Z,7732
2016-03-06T12:40:25.724Z,6888
2016-03-06T12:41:25.711Z,6064
2016-03-06T12:42:25.745Z,5420
2016-03-06T12:43:25.716Z,5096
2016-03-06T12:44:25.735Z,4800
2016-03-06T12:45:25.736Z,4296
2016-03-06T12:46:25.694Z,3968
2016-03-06T12:47:25.716Z,3988
2016-03-06T12:48:25.690Z,3876
2016-03-06T12:49:25.664Z,3744
2016-03-06T12:50:25.733Z,3632
2016-03-06T12:51:25.669Z,3828
2016-03-06T12:52:25.668Z,4220
2016-03-06T12:53:25.666Z,4260
2016-03-06T12:54:25.649Z,4380
2016-03-06T12:55:25.680Z,4552
2016-03-06T12:56:25.681Z,4760
2016-03-06T12:57:25.666Z,4956
2016-03-06T12:58:25.667Z,5440
2016-03-06T12:59:25.669Z,5424
2016-03-06T13:00:25.654Z,4868
2016-03-06T13:01:25.688Z,4536
2016-03-06T13:02:25.674Z,4420
2016-03-06T13:03:25.675Z,4504
2016-03-06T13:04:25.662Z,4540
2016-03-06T13:05:25.679Z,4720
2016-03-06T13:06:25.728Z,5092
2016-03-06T13:07:25.668Z,5200
2016-03-06T13:08:25.687Z,4976
2016-03-06T13:09:25.673Z,4848
2016-03-06T13:10:25.675Z,4844
2016-03-06T13:11:25.678Z,4804
2016-03-06T13:12:25.696Z,4896
2016-03-06T13:13:25.683Z,5052
2016-03-06T13:14:25.686Z,5160
2016-03-06T13:15:25.720Z,4984
2016-03-06T13:16:25.692Z,4704
2016-03-06T13:17:25.694Z,4536
2016-03-06T13:18:25.696Z,4484
2016-03-06T13:19:25.700Z,4252
2016-03-06T13:20:25.718Z,3916
2016-03-06T13:21:25.721Z,3824
2016-03-06T13:22:25.707Z,3708
2016-03-06T13:23:25.726Z,3644
2016-03-06T13:24:25.791Z,3440
2016-03-06T13:25:29.197Z,3004
2016-03-06T13:26:25.755Z,2660
2016-03-06T13:27:26.137Z,2276
2016-03-06T13:28:28.466Z,1936
2016-03-06T13:29:26.124Z,1840
2016-03-06T13:30:25.767Z,1956
2016-03-06T13:31:25.723Z,1924
2016-03-06T13:32:25.741Z,1720
2016-03-06T13:33:25.760Z,1512
2016-03-06T13:34:25.732Z,1364
2016-03-06T13:35:25.749Z,1208
2016-03-06T13:36:25.783Z,1004
2016-03-06T13:37:25.739Z,724
2016-03-06T13:38:25.741Z,648
2016-03-06T13:39:25.744Z,760
2016-03-06T13:40:25.762Z,776
2016-03-06T13:41:25.764Z,712
2016-03-06T13:42:25.752Z,800
2016-03-06T13:43:25.770Z,792
2016-03-06T13:44:25.758Z,840
2016-03-06T13:45:25.760Z,1136
2016-03-06T13:46:25.762Z,1552
2016-03-06T13:47:25.812Z,2012
2016-03-06T13:48:25.783Z,2256
2016-03-06T13:49:25.786Z,2812
2016-03-06T13:50:25.758Z,3448
2016-03-06T13:51:25.760Z,3944
2016-03-06T13:52:25.763Z,4480
2016-03-06T13:53:25.766Z,5012
2016-03-06T13:54:25.784Z,5184
2016-03-06T13:55:25.771Z,5188
2016-03-06T13:56:25.790Z,5048
2016-03-06T13:57:25.807Z,4708